Big Bear Station Historical Data
 
Daily Summary for June 20, 2018 Units:  English    Metric   Both
Next Day »
Daily Weekly Monthly Yearly Custom
  Current: High: Low: Average:
Temperature: 84.0 °F 84.0 °F 44.4 °F 55.3 °F
Dew Point: 39.9 °F 47.4 °F 30.7 °F 37.3 °F
Humidity: 21% 80% 16% 57%
Wind Speed: 3.7mph 7.3mph 0.0mph 1mph
Wind Gust: -999.0mph -999.0mph - -
WindWNW - - NW
Pressure: 0.00 in 0.00 in 0.00 in -
Precipitation: 0.00 in      
Historical Graphs
 
 
Tabular Data for June 20, 2018
Time Temperature Dew Point Pressure Wind Wind Speed Wind Gust Humidity Rainfall Rate (Hourly)
00:06 52.0 °F 31.3 °F 0.00 in Calm   -999.0 mph 45% 0.00 in
00:22 51.4 °F 31.8 °F 0.00 in Calm   -999.0 mph 47% 0.00 in
00:37 50.9 °F 33.4 °F 0.00 in Calm   -999.0 mph 51% 0.00 in
00:52 50.4 °F 34.8 °F 0.00 in Calm   -999.0 mph 55% 0.00 in
01:08 49.8 °F 34.7 °F 0.00 in Calm   -999.0 mph 56% 0.00 in
01:23 49.3 °F 36.0 °F 0.00 in Calm   -999.0 mph 60% 0.00 in
01:38 48.9 °F 37.7 °F 0.00 in Calm   -999.0 mph 65% 0.00 in
01:54 48.4 °F 37.9 °F 0.00 in Calm   -999.0 mph 67% 0.00 in
02:09 48.2 °F 37.8 °F 0.00 in Calm   -999.0 mph 67% 0.00 in
02:25 48.0 °F 36.8 °F 0.00 in Calm   -999.0 mph 65% 0.00 in
02:40 47.7 °F 36.1 °F 0.00 in Calm   -999.0 mph 64% 0.00 in
02:55 47.1 °F 34.7 °F 0.00 in Calm   -999.0 mph 62% 0.00 in
03:10 47.1 °F 35.2 °F 0.00 in Calm   -999.0 mph 63% 0.00 in
03:26 46.2 °F 35.1 °F 0.00 in Calm   -999.0 mph 65% 0.00 in
03:41 46.4 °F 35.3 °F 0.00 in Calm   -999.0 mph 65% 0.00 in
03:56 46.4 °F 35.7 °F 0.00 in Calm   -999.0 mph 66% 0.00 in
04:11 45.5 °F 36.6 °F 0.00 in Calm   -999.0 mph 71% 0.00 in
04:26 45.9 °F 36.7 °F 0.00 in Calm   -999.0 mph 70% 0.00 in
04:42 45.1 °F 36.6 °F 0.00 in Calm   -999.0 mph 72% 0.00 in
04:57 45.3 °F 37.8 °F 0.00 in Calm   -999.0 mph 75% 0.00 in
05:12 45.0 °F 38.6 °F 0.00 in Calm   -999.0 mph 78% 0.00 in
05:27 44.6 °F 38.2 °F 0.00 in Calm   -999.0 mph 78% 0.00 in
05:42 44.6 °F 37.8 °F 0.00 in Calm   -999.0 mph 77% 0.00 in
05:58 44.8 °F 37.4 °F 0.00 in Calm   -999.0 mph 75% 0.00 in
06:13 44.4 °F 38.0 °F 0.00 in Calm   -999.0 mph 78% 0.00 in
06:28 45.0 °F 38.9 °F 0.00 in Calm   -999.0 mph 79% 0.00 in
06:43 45.1 °F 39.3 °F 0.00 in Calm   -999.0 mph 80% 0.00 in
06:58 45.7 °F 39.9 °F 0.00 in Calm   -999.0 mph 80% 0.00 in
07:14 46.9 °F 41.1 °F 0.00 in Calm   -999.0 mph 80% 0.00 in
07:29 47.8 °F 41.6 °F 0.00 in Calm   -999.0 mph 79% 0.00 in
07:44 49.5 °F 42.2 °F 0.00 in Calm   -999.0 mph 76% 0.00 in
07:59 51.4 °F 44.8 °F 0.00 in Calm   -999.0 mph 78% 0.00 in
08:15 54.0 °F 46.6 °F 0.00 in Calm   -999.0 mph 76% 0.00 in
08:30 56.7 °F 47.4 °F 0.00 in Calm   -999.0 mph 71% 0.00 in
08:45 59.0 °F 38.2 °F 0.00 in NW 1.7 mph -999.0 mph 46% 0.00 in
09:00 61.7 °F 39.6 °F 0.00 in Calm   -999.0 mph 44% 0.00 in
09:15 65.8 °F 37.4 °F 0.00 in Calm   -999.0 mph 35% 0.00 in
09:31 70.2 °F 38.1 °F 0.00 in NW 3.2 mph -999.0 mph 31% 0.00 in
09:46 74.7 °F 33.3 °F 0.00 in NNW 7.3 mph -999.0 mph 22% 0.00 in
10:01 76.6 °F 33.7 °F 0.00 in NW 6.3 mph -999.0 mph 21% 0.00 in
10:17 78.1 °F 35.0 °F 0.00 in NW 4.7 mph -999.0 mph 21% 0.00 in
10:32 79.2 °F 34.7 °F 0.00 in NW 4.7 mph -999.0 mph 20% 0.00 in
10:47 80.2 °F 31.4 °F 0.00 in NNW 5.8 mph -999.0 mph 17% 0.00 in
11:03 81.1 °F 30.7 °F 0.00 in NNW 3.7 mph -999.0 mph 16% 0.00 in
11:18 81.1 °F 38.7 °F 0.00 in WNW 4.2 mph -999.0 mph 22% 0.00 in
11:33 81.9 °F 39.3 °F 0.00 in NW 3.2 mph -999.0 mph 22% 0.00 in
11:49 84.0 °F 39.9 °F 0.00 in WNW 3.7 mph -999.0 mph 21% 0.00 in
Big Bear CA Weather